KFAM

Farmington Regional Airport

Farmington, Missouri, USA
METAR KFAM 190456Z AUTO 00000KT 10SM CLR 22/22 A2998 RMK AO2 SLP138 T02220217
Observed Flight Rules
Sep-19 @ 04:56 UTC (58 minutes ago) Visual Flight Rules
Visibility Clouds
10 miles
  • Clear skies
Temperatures Readings
Current 22°C / 72°F
Dewpoint 22°C / 72°F
Humidity 100%
Altimeter 29.98" Hg
Pressure 1013.8 hPa
Elevation 288
METAR KFAM 190456Z AUTO 00000KT 10SM CLR 22/22 A2998 RMK AO2 SLP138 T02220217
Observed Flight Rules
Sep-19 @ 04:56 UTC
(58 minutes ago)
VFR
Clouds
  • Clear skies
Temperature Dewpoint
22°C / 72°F 22°C / 72°F
Humidity Altimeter Pressure
100% 29.98" Hg 1013.8 hPa